createdAt,value
2023-05-02T00:00:14.069Z,29.72
2023-05-02T00:01:14.061Z,29.71
2023-05-02T00:02:14.171Z,29.75
2023-05-02T00:03:14.096Z,29.72
2023-05-02T00:04:14.113Z,29.78
2023-05-02T00:05:13.994Z,29.75
2023-05-02T00:06:14.044Z,29.77
2023-05-02T00:07:13.963Z,29.70
2023-05-02T00:08:13.948Z,29.72
2023-05-02T00:09:13.933Z,29.75
2023-05-02T00:10:13.924Z,29.77
2023-05-02T00:11:13.902Z,29.78
2023-05-02T00:12:13.877Z,29.82
2023-05-02T00:13:13.870Z,29.75
2023-05-02T00:14:13.875Z,29.79
2023-05-02T00:15:13.863Z,29.74
2023-05-02T00:16:13.850Z,29.78
2023-05-02T00:17:13.946Z,29.75
2023-05-02T00:18:13.910Z,29.72
2023-05-02T00:19:13.849Z,29.78
2023-05-02T00:20:13.884Z,29.77
2023-05-02T00:21:13.867Z,29.75
2023-05-02T00:22:13.882Z,29.79
2023-05-02T00:23:13.874Z,29.78
2023-05-02T00:24:13.854Z,29.77
2023-05-02T00:25:13.858Z,29.77
2023-05-02T00:26:13.847Z,29.77
2023-05-02T00:27:13.824Z,29.77
2023-05-02T00:28:13.878Z,29.74
2023-05-02T00:29:13.828Z,29.71
2023-05-02T00:30:13.809Z,29.81
2023-05-02T00:31:13.840Z,29.75
2023-05-02T00:32:13.799Z,29.78
2023-05-02T00:33:13.826Z,29.80
2023-05-02T00:34:13.782Z,29.78
2023-05-02T00:35:13.771Z,29.77
2023-05-02T00:36:13.759Z,29.71
2023-05-02T00:37:13.744Z,29.78
2023-05-02T00:38:13.722Z,29.81
2023-05-02T00:39:13.727Z,29.82
2023-05-02T00:40:13.716Z,29.75
2023-05-02T00:41:13.762Z,29.80
2023-05-02T00:42:13.690Z,29.82
2023-05-02T00:43:13.687Z,29.81
2023-05-02T00:44:13.680Z,29.77
2023-05-02T00:45:13.673Z,29.78
2023-05-02T00:46:13.738Z,29.77
2023-05-02T00:47:13.661Z,29.78
2023-05-02T00:48:13.709Z,29.77
2023-05-02T00:49:13.645Z,29.79
2023-05-02T00:50:13.748Z,29.73
2023-05-02T00:51:13.629Z,29.77
2023-05-02T00:52:13.630Z,29.76
2023-05-02T00:53:13.635Z,29.74
2023-05-02T00:54:13.612Z,29.79
2023-05-02T00:55:13.596Z,29.78
2023-05-02T00:56:13.680Z,29.77
2023-05-02T00:57:13.679Z,29.75
2023-05-02T00:58:13.641Z,29.79
2023-05-02T00:59:13.692Z,29.79
2023-05-02T01:00:13.696Z,29.73
2023-05-02T01:01:13.772Z,29.77
2023-05-02T01:02:13.728Z,29.75
2023-05-02T01:03:13.724Z,29.77
2023-05-02T01:04:13.871Z,29.78
2023-05-02T01:05:13.673Z,29.81
2023-05-02T01:06:13.715Z,29.78
2023-05-02T01:07:13.676Z,29.79
2023-05-02T01:08:13.661Z,29.78
2023-05-02T01:09:13.668Z,29.79
2023-05-02T01:10:13.677Z,29.79
2023-05-02T01:11:13.706Z,29.79
2023-05-02T01:12:13.696Z,29.82
2023-05-02T01:13:13.697Z,29.79
2023-05-02T01:14:13.717Z,29.79
2023-05-02T01:15:13.721Z,29.81
2023-05-02T01:16:13.748Z,29.74
2023-05-02T01:17:13.734Z,29.84
2023-05-02T01:18:13.892Z,29.82
2023-05-02T01:19:13.787Z,29.76
2023-05-02T01:20:13.807Z,29.79
2023-05-02T01:21:13.811Z,29.78
2023-05-02T01:22:13.817Z,29.82
2023-05-02T01:23:13.830Z,29.75
2023-05-02T01:24:13.853Z,29.79
2023-05-02T01:25:13.858Z,29.79
2023-05-02T01:26:13.882Z,29.84
2023-05-02T01:27:13.887Z,29.82
2023-05-02T01:28:13.913Z,29.76
2023-05-02T01:29:13.929Z,29.82
2023-05-02T01:30:13.946Z,29.78
2023-05-02T01:31:14.019Z,29.81
2023-05-02T01:32:13.968Z,29.80
2023-05-02T01:33:14.044Z,29.80
2023-05-02T01:34:14.001Z,29.75
2023-05-02T01:35:13.995Z,29.75
2023-05-02T01:36:14.012Z,29.79
2023-05-02T01:37:14.029Z,29.75
2023-05-02T01:38:14.037Z,29.76
2023-05-02T01:39:14.033Z,29.72
2023-05-02T01:40:14.047Z,29.79
2023-05-02T01:41:14.057Z,29.82
2023-05-02T01:42:14.064Z,29.79
2023-05-02T01:43:14.070Z,29.82
2023-05-02T01:44:14.069Z,29.75
2023-05-02T01:45:14.073Z,29.75
2023-05-02T01:46:14.092Z,29.82
2023-05-02T01:47:14.145Z,29.84
2023-05-02T01:48:14.095Z,29.79
2023-05-02T01:49:14.117Z,29.75
2023-05-02T01:50:14.125Z,29.78
2023-05-02T01:51:14.136Z,29.79
2023-05-02T01:52:14.135Z,29.79
2023-05-02T01:53:14.156Z,29.73
2023-05-02T01:54:14.177Z,29.82
2023-05-02T01:55:14.178Z,29.85
2023-05-02T01:56:14.213Z,29.76
2023-05-02T01:57:14.211Z,29.77
2023-05-02T01:58:14.235Z,29.77
2023-05-02T01:59:14.241Z,29.85
2023-05-02T02:00:14.235Z,29.84
2023-05-02T02:01:14.238Z,29.77
2023-05-02T02:02:14.212Z,29.79
2023-05-02T02:03:14.260Z,29.78
2023-05-02T02:04:14.266Z,29.84
2023-05-02T02:05:14.199Z,29.79
2023-05-02T02:06:14.210Z,29.79
2023-05-02T02:07:14.179Z,29.81
2023-05-02T02:08:14.166Z,29.76
2023-05-02T02:09:14.150Z,29.77
2023-05-02T02:10:14.148Z,29.76
2023-05-02T02:11:14.150Z,29.80
2023-05-02T02:12:14.138Z,29.79
2023-05-02T02:13:14.135Z,29.79
2023-05-02T02:14:14.150Z,29.79
2023-05-02T02:15:14.128Z,29.80
2023-05-02T02:16:14.218Z,29.77
2023-05-02T02:17:14.104Z,29.82
2023-05-02T02:18:14.162Z,29.85
2023-05-02T02:19:14.086Z,29.77
2023-05-02T02:20:14.075Z,29.80
2023-05-02T02:21:14.076Z,29.88
2023-05-02T02:22:14.079Z,29.77
2023-05-02T02:23:14.044Z,29.83
2023-05-02T02:24:14.050Z,29.75
2023-05-02T02:25:14.034Z,29.79
2023-05-02T02:26:14.019Z,29.85
2023-05-02T02:27:14.006Z,29.82
2023-05-02T02:28:14.014Z,29.80
2023-05-02T02:29:13.991Z,29.78
2023-05-02T02:30:13.978Z,29.87
2023-05-02T02:31:14.008Z,29.91
2023-05-02T02:32:13.962Z,29.85
2023-05-02T02:33:13.989Z,29.82
2023-05-02T02:34:13.936Z,29.85
2023-05-02T02:35:13.937Z,29.88
2023-05-02T02:36:13.906Z,29.77
2023-05-02T02:37:13.896Z,29.79
2023-05-02T02:38:13.867Z,29.85
2023-05-02T02:39:13.876Z,29.76
2023-05-02T02:40:13.837Z,29.80
2023-05-02T02:41:13.842Z,29.77
2023-05-02T02:42:13.969Z,29.80
2023-05-02T02:43:13.788Z,29.80
2023-05-02T02:44:13.856Z,29.80
2023-05-02T02:45:13.764Z,29.75
2023-05-02T02:46:13.789Z,29.82
2023-05-02T02:47:13.746Z,29.79
2023-05-02T02:48:13.771Z,29.80
2023-05-02T02:49:13.744Z,29.76
2023-05-02T02:50:13.733Z,29.80
2023-05-02T02:51:13.723Z,29.79
2023-05-02T02:52:13.718Z,29.80
2023-05-02T02:53:13.716Z,29.82
2023-05-02T02:54:25.923Z,29.89
2023-05-02T02:55:14.693Z,29.86
2023-05-02T02:56:13.689Z,29.85
2023-05-02T02:57:13.677Z,29.91
2023-05-02T02:58:13.654Z,29.88
2023-05-02T02:59:13.631Z,29.83
2023-05-02T03:00:13.635Z,29.85
2023-05-02T03:01:13.692Z,29.76
2023-05-02T03:02:13.692Z,29.83
2023-05-02T03:03:13.680Z,29.79
2023-05-02T03:04:13.713Z,29.86
2023-05-02T03:05:13.647Z,29.85
2023-05-02T03:06:13.666Z,29.83
2023-05-02T03:07:13.621Z,29.85
2023-05-02T03:08:13.591Z,29.86
2023-05-02T03:09:13.584Z,29.83
2023-05-02T03:10:13.580Z,29.79
2023-05-02T03:11:13.589Z,29.86
2023-05-02T03:12:13.574Z,29.89
2023-05-02T03:13:13.559Z,29.79
2023-05-02T03:14:13.549Z,29.82
2023-05-02T03:15:13.544Z,29.82
2023-05-02T03:16:13.560Z,29.85
2023-05-02T03:17:13.536Z,29.88
2023-05-02T03:18:13.574Z,29.82
2023-05-02T03:19:13.503Z,29.88
2023-05-02T03:20:13.503Z,29.88
2023-05-02T03:21:13.477Z,29.85
2023-05-02T03:22:13.470Z,29.82
2023-05-02T03:23:13.450Z,29.79
2023-05-02T03:24:13.443Z,29.76
2023-05-02T03:25:13.450Z,29.82
2023-05-02T03:26:13.445Z,29.77
2023-05-02T03:27:13.423Z,29.83
2023-05-02T03:28:13.408Z,29.91
2023-05-02T03:29:13.443Z,29.83
2023-05-02T03:30:13.456Z,29.79
2023-05-02T03:31:13.421Z,29.77
2023-05-02T03:32:13.455Z,29.85
2023-05-02T03:33:13.388Z,29.91
2023-05-02T03:34:13.358Z,29.85
2023-05-02T03:35:13.338Z,29.80
2023-05-02T03:36:13.359Z,29.80
2023-05-02T03:37:13.353Z,29.85
2023-05-02T03:38:13.358Z,29.82
2023-05-02T03:39:13.309Z,29.79
2023-05-02T03:40:13.325Z,29.79
2023-05-02T03:41:13.282Z,29.83
2023-05-02T03:42:13.363Z,29.89
2023-05-02T03:43:13.265Z,29.88
2023-05-02T03:44:13.298Z,29.79
2023-05-02T03:45:13.299Z,29.83
2023-05-02T03:46:13.339Z,29.89
2023-05-02T03:47:13.621Z,29.83
2023-05-02T03:48:13.263Z,29.83
2023-05-02T03:49:13.288Z,29.83
2023-05-02T03:50:13.240Z,29.85
2023-05-02T03:51:13.189Z,29.88
2023-05-02T03:52:13.190Z,29.89
2023-05-02T03:53:13.147Z,29.80
2023-05-02T03:54:13.183Z,29.89
2023-05-02T03:55:13.120Z,29.89
2023-05-02T03:56:13.107Z,29.85
2023-05-02T03:57:13.113Z,29.86
2023-05-02T03:58:13.107Z,29.82
2023-05-02T03:59:13.083Z,29.89
2023-05-02T04:00:13.071Z,29.88
2023-05-02T04:01:13.068Z,29.80
2023-05-02T04:02:13.099Z,29.83
2023-05-02T04:03:13.113Z,29.82
2023-05-02T04:04:13.106Z,29.86
2023-05-02T04:05:13.022Z,29.85
2023-05-02T04:06:13.378Z,29.82
2023-05-02T04:07:13.025Z,29.79
2023-05-02T04:08:13.003Z,29.80
2023-05-02T04:09:13.018Z,29.82
2023-05-02T04:10:13.036Z,29.86
2023-05-02T04:11:13.049Z,29.82
2023-05-02T04:12:12.976Z,29.78
2023-05-02T04:13:12.989Z,29.86
2023-05-02T04:14:13.075Z,29.83
2023-05-02T04:15:12.955Z,29.82
2023-05-02T04:16:13.075Z,29.85
2023-05-02T04:17:13.063Z,29.77
2023-05-02T04:18:13.065Z,29.82
2023-05-02T04:19:12.992Z,29.86
2023-05-02T04:20:12.964Z,29.85
2023-05-02T04:21:12.925Z,29.89
2023-05-02T04:22:12.917Z,29.83
2023-05-02T04:23:12.924Z,29.82
2023-05-02T04:24:12.922Z,29.89
2023-05-02T04:25:12.911Z,29.77
2023-05-02T04:26:12.883Z,29.79
2023-05-02T04:27:15.163Z,29.91
2023-05-02T04:28:13.034Z,29.84
2023-05-02T04:29:13.006Z,29.86
2023-05-02T04:30:13.010Z,29.77
2023-05-02T04:31:13.077Z,29.80
2023-05-02T04:32:13.102Z,29.80
2023-05-02T04:33:13.082Z,29.77
2023-05-02T04:34:13.129Z,29.76
2023-05-02T04:35:13.073Z,29.80
2023-05-02T04:36:13.002Z,29.77
2023-05-02T04:37:13.076Z,29.80
2023-05-02T04:38:13.067Z,29.79
2023-05-02T04:39:13.017Z,29.76
2023-05-02T04:40:12.978Z,29.80
2023-05-02T04:41:12.960Z,29.85
2023-05-02T04:42:13.017Z,29.86
2023-05-02T04:43:12.905Z,29.84
2023-05-02T04:44:12.889Z,29.84
2023-05-02T04:45:12.875Z,29.81
2023-05-02T04:46:12.887Z,29.82
2023-05-02T04:47:12.859Z,29.80
2023-05-02T04:48:13.002Z,29.84
2023-05-02T04:49:12.836Z,29.80
2023-05-02T04:50:12.817Z,29.85
2023-05-02T04:51:14.276Z,29.82
2023-05-02T04:52:12.793Z,29.78
2023-05-02T04:53:12.771Z,29.74
2023-05-02T04:54:12.769Z,29.76
2023-05-02T04:55:12.817Z,29.77
2023-05-02T04:56:12.756Z,29.73
2023-05-02T04:57:12.749Z,29.76
2023-05-02T04:58:12.781Z,29.69
2023-05-02T04:59:12.719Z,29.69
2023-05-02T05:00:12.725Z,29.75
2023-05-02T05:01:12.719Z,29.72
2023-05-02T05:02:12.870Z,29.73
2023-05-02T05:03:12.761Z,29.73
2023-05-02T05:04:12.804Z,29.72
2023-05-02T05:05:12.698Z,29.80
2023-05-02T05:06:12.827Z,29.72
2023-05-02T05:07:12.651Z,29.79
2023-05-02T05:08:12.645Z,29.79
2023-05-02T05:09:12.621Z,29.74
2023-05-02T05:10:12.624Z,29.68
2023-05-02T05:11:12.583Z,29.74
2023-05-02T05:12:12.587Z,29.60
2023-05-02T05:13:12.571Z,29.79
2023-05-02T05:14:12.568Z,29.72
2023-05-02T05:15:12.586Z,29.69
2023-05-02T05:16:12.619Z,29.69
2023-05-02T05:17:12.569Z,29.65
2023-05-02T05:18:12.575Z,29.66
2023-05-02T05:19:12.528Z,29.69
2023-05-02T05:20:12.529Z,29.69
2023-05-02T05:21:12.506Z,29.68
2023-05-02T05:22:12.508Z,29.69
2023-05-02T05:23:12.502Z,29.69
2023-05-02T05:24:12.493Z,29.72
2023-05-02T05:25:12.482Z,29.69
2023-05-02T05:26:12.495Z,29.64
2023-05-02T05:27:12.472Z,29.68
2023-05-02T05:28:12.459Z,29.66
2023-05-02T05:29:12.445Z,29.71
2023-05-02T05:30:12.469Z,29.74
2023-05-02T05:31:13.998Z,29.69
2023-05-02T05:32:12.516Z,29.66
2023-05-02T05:33:12.551Z,29.66
2023-05-02T05:34:12.521Z,29.65
2023-05-02T05:35:12.399Z,29.74
2023-05-02T05:36:12.396Z,30.05
2023-05-02T05:37:12.385Z,30.87
2023-05-02T05:38:12.405Z,30.64
2023-05-02T05:39:12.598Z,30.66
2023-05-02T05:40:12.342Z,30.96
2023-05-02T05:41:12.318Z,30.77
2023-05-02T05:42:12.321Z,30.94
2023-05-02T05:43:12.293Z,30.96
2023-05-02T05:44:12.270Z,31.11
2023-05-02T05:45:12.266Z,31.42
2023-05-02T05:46:12.253Z,31.42
2023-05-02T05:47:12.288Z,31.51
2023-05-02T05:48:12.288Z,31.63
2023-05-02T05:49:12.223Z,31.78
2023-05-02T05:50:12.213Z,31.92
2023-05-02T05:51:12.228Z,32.01
2023-05-02T05:52:12.183Z,31.86
2023-05-02T05:53:12.178Z,31.92
2023-05-02T05:54:12.157Z,32.01
2023-05-02T05:55:12.132Z,31.93
2023-05-02T05:56:12.125Z,31.89
2023-05-02T05:57:12.112Z,31.82
2023-05-02T05:58:12.132Z,31.74
2023-05-02T05:59:12.089Z,31.68
2023-05-02T06:00:12.165Z,31.68
2023-05-02T06:01:12.068Z,31.57
2023-05-02T06:02:12.095Z,31.61
2023-05-02T06:03:12.070Z,31.74
2023-05-02T06:04:12.252Z,31.82
2023-05-02T06:05:12.075Z,31.89
2023-05-02T06:06:12.132Z,31.80
2023-05-02T06:07:12.003Z,31.73
2023-05-02T06:08:12.004Z,31.77
2023-05-02T06:09:11.979Z,31.78
2023-05-02T06:10:11.982Z,31.78
2023-05-02T06:11:12.006Z,31.74
2023-05-02T06:12:11.955Z,31.74
2023-05-02T06:13:11.994Z,31.71
2023-05-02T06:14:11.942Z,31.72
2023-05-02T06:15:11.938Z,31.66
2023-05-02T06:16:12.032Z,31.63
2023-05-02T06:17:11.918Z,31.62
2023-05-02T06:18:11.912Z,31.59
2023-05-02T06:19:11.930Z,31.56
2023-05-02T06:20:11.898Z,31.50
2023-05-02T06:21:11.954Z,31.54
2023-05-02T06:22:11.985Z,31.50
2023-05-02T06:23:11.931Z,31.41
2023-05-02T06:24:12.000Z,31.39
2023-05-02T06:25:11.899Z,31.37
2023-05-02T06:26:12.873Z,31.39
2023-05-02T06:27:11.942Z,31.37
2023-05-02T06:28:12.082Z,31.32
2023-05-02T06:29:12.047Z,31.34
2023-05-02T06:30:11.947Z,31.32
2023-05-02T06:31:12.019Z,31.31
2023-05-02T06:32:11.956Z,31.27
2023-05-02T06:33:12.061Z,31.26
2023-05-02T06:34:12.033Z,31.28
2023-05-02T06:35:11.923Z,31.26
2023-05-02T06:36:11.880Z,31.25
2023-05-02T06:37:11.994Z,31.23
2023-05-02T06:38:11.954Z,31.19
2023-05-02T06:39:11.967Z,31.22
2023-05-02T06:40:11.908Z,31.19
2023-05-02T06:41:12.042Z,31.19
2023-05-02T06:42:11.908Z,31.20
2023-05-02T06:43:11.875Z,31.23
2023-05-02T06:44:11.801Z,31.37
2023-05-02T06:45:11.782Z,31.52
2023-05-02T06:46:11.841Z,31.74
2023-05-02T06:47:11.859Z,31.77
2023-05-02T06:48:11.839Z,31.91
2023-05-02T06:49:11.761Z,31.97
2023-05-02T06:50:11.704Z,32.27
2023-05-02T06:51:11.831Z,32.19
2023-05-02T06:52:11.818Z,32.34
2023-05-02T06:53:11.813Z,32.47
2023-05-02T06:54:11.916Z,32.74
2023-05-02T06:55:11.777Z,32.85
2023-05-02T06:56:11.767Z,33.09
2023-05-02T06:57:11.792Z,33.07
2023-05-02T06:58:11.811Z,33.19
2023-05-02T06:59:11.719Z,33.36
2023-05-02T07:00:11.729Z,33.44
2023-05-02T07:01:11.772Z,33.63
2023-05-02T07:02:11.679Z,33.53
2023-05-02T07:03:11.716Z,33.57
2023-05-02T07:04:11.701Z,33.71
2023-05-02T07:05:11.622Z,33.71
2023-05-02T07:06:11.654Z,33.76
2023-05-02T07:07:11.598Z,33.50
2023-05-02T07:08:11.611Z,33.50
2023-05-02T07:09:11.560Z,33.56
2023-05-02T07:10:11.530Z,33.56
2023-05-02T07:11:11.641Z,33.61
2023-05-02T07:12:11.622Z,33.56
2023-05-02T07:13:11.549Z,33.76
2023-05-02T07:14:11.637Z,33.99
2023-05-02T07:15:11.492Z,34.02
2023-05-02T07:16:11.501Z,34.23
2023-05-02T07:17:12.386Z,34.19
2023-05-02T07:18:11.472Z,34.27
2023-05-02T07:19:11.423Z,34.28
2023-05-02T07:20:11.410Z,34.30
2023-05-02T07:21:11.338Z,34.31
2023-05-02T07:22:11.296Z,34.02
2023-05-02T07:23:11.315Z,34.09
2023-05-02T07:24:11.260Z,34.07
2023-05-02T07:25:11.293Z,34.19
2023-05-02T07:26:11.215Z,34.26
2023-05-02T07:27:11.255Z,34.25
2023-05-02T07:28:11.214Z,34.33
2023-05-02T07:29:11.149Z,34.44
2023-05-02T07:30:11.231Z,34.43
2023-05-02T07:31:11.092Z,34.53
2023-05-02T07:32:11.138Z,34.64
2023-05-02T07:33:11.110Z,34.67
2023-05-02T07:34:11.044Z,34.85
2023-05-02T07:35:11.906Z,34.68
2023-05-02T07:36:10.991Z,34.66
2023-05-02T07:37:11.005Z,34.61
2023-05-02T07:38:11.018Z,34.57
2023-05-02T07:39:11.051Z,34.59
2023-05-02T07:40:10.902Z,34.65
2023-05-02T07:41:10.930Z,34.55
2023-05-02T07:42:10.983Z,34.57
2023-05-02T07:43:11.314Z,34.59
2023-05-02T07:44:10.830Z,34.60
2023-05-02T07:45:10.789Z,34.44
2023-05-02T07:46:10.920Z,34.36
2023-05-02T07:47:10.738Z,30.37
2023-05-02T07:48:10.762Z,30.84
2023-05-02T07:49:10.709Z,31.24
2023-05-02T07:50:10.688Z,31.22
2023-05-02T07:51:10.725Z,31.23
2023-05-02T07:52:10.654Z,30.24
2023-05-02T07:53:10.660Z,30.31
2023-05-02T07:54:10.646Z,30.32
2023-05-02T07:55:10.634Z,30.21
2023-05-02T07:56:10.627Z,30.32
2023-05-02T07:57:10.601Z,30.05
2023-05-02T07:58:10.665Z,29.90
2023-05-02T07:59:10.604Z,29.82
2023-05-02T08:00:10.598Z,29.77
2023-05-02T08:01:10.611Z,29.99
2023-05-02T08:02:11.172Z,29.88
2023-05-02T08:03:10.764Z,29.97
2023-05-02T08:04:10.839Z,29.81
2023-05-02T08:05:10.695Z,29.72
2023-05-02T08:06:10.650Z,29.91
2023-05-02T08:07:10.576Z,29.95
2023-05-02T08:08:10.601Z,30.03
2023-05-02T08:09:10.579Z,29.83
2023-05-02T08:10:10.574Z,29.79
2023-05-02T08:11:10.579Z,29.71
2023-05-02T08:12:10.558Z,29.67
2023-05-02T08:13:10.605Z,29.82
2023-05-02T08:14:10.613Z,29.79
2023-05-02T08:15:10.553Z,29.80
2023-05-02T08:16:10.579Z,29.81
2023-05-02T08:17:10.536Z,29.95
2023-05-02T08:18:10.642Z,30.00
2023-05-02T08:19:10.559Z,30.07
2023-05-02T08:20:10.530Z,29.89
2023-05-02T08:21:10.563Z,29.79
2023-05-02T08:22:10.521Z,29.93
2023-05-02T08:23:10.501Z,29.73
2023-05-02T08:24:10.496Z,29.70
2023-05-02T08:25:10.510Z,30.02
2023-05-02T08:26:10.507Z,29.70
2023-05-02T08:27:10.507Z,29.77
2023-05-02T08:28:10.509Z,29.92
2023-05-02T08:29:10.484Z,29.85
2023-05-02T08:30:10.482Z,29.79
2023-05-02T08:31:10.510Z,30.00
2023-05-02T08:32:10.594Z,30.21
2023-05-02T08:33:10.628Z,30.08
2023-05-02T08:34:10.489Z,29.98
2023-05-02T08:35:10.457Z,29.82
2023-05-02T08:36:10.462Z,29.89
2023-05-02T08:37:10.673Z,29.74
2023-05-02T08:38:10.499Z,29.81
2023-05-02T08:39:10.461Z,29.80
2023-05-02T08:40:10.499Z,29.90
2023-05-02T08:41:10.459Z,29.80
2023-05-02T08:42:10.565Z,29.86
2023-05-02T08:43:10.548Z,29.73
2023-05-02T08:44:10.679Z,30.09
2023-05-02T08:45:10.685Z,30.20
2023-05-02T08:46:10.754Z,30.39
2023-05-02T08:47:10.906Z,30.37
2023-05-02T08:48:10.971Z,30.84
2023-05-02T08:49:10.919Z,30.97
2023-05-02T08:50:10.962Z,31.18
2023-05-02T08:51:10.990Z,31.17
2023-05-02T08:52:11.015Z,31.33
2023-05-02T08:53:11.051Z,31.56
2023-05-02T08:54:11.053Z,31.47
2023-05-02T08:55:11.036Z,31.86
2023-05-02T08:56:11.069Z,31.87
2023-05-02T08:57:11.056Z,32.15
2023-05-02T08:58:11.071Z,32.51
2023-05-02T09:00:29.919Z,32.75
2023-05-02T09:01:29.955Z,33.37
2023-05-02T09:02:30.016Z,33.26
2023-05-02T09:03:29.911Z,32.58
2023-05-02T09:04:29.927Z,32.61
2023-05-02T09:05:29.994Z,32.50
2023-05-02T09:06:30.045Z,32.48
2023-05-02T09:07:29.941Z,32.65
2023-05-02T09:08:29.931Z,32.75
2023-05-02T09:09:29.894Z,32.73
2023-05-02T09:10:29.916Z,32.75
2023-05-02T09:11:29.906Z,32.78
2023-05-02T09:12:30.051Z,32.75
2023-05-02T09:13:29.921Z,32.77
2023-05-02T09:14:29.908Z,32.86
2023-05-02T09:15:29.904Z,33.03
2023-05-02T09:16:29.933Z,33.07
2023-05-02T09:17:29.928Z,33.02
2023-05-02T09:18:29.892Z,33.25
2023-05-02T09:19:29.888Z,33.41
2023-05-02T09:20:29.900Z,33.29
2023-05-02T09:21:29.905Z,33.13
2023-05-02T09:22:29.912Z,33.28
2023-05-02T09:23:29.873Z,33.41
2023-05-02T09:24:29.891Z,33.52
2023-05-02T09:25:29.865Z,33.64
2023-05-02T09:26:31.605Z,33.44
2023-05-02T09:27:29.843Z,33.62
2023-05-02T09:28:29.942Z,33.70
2023-05-02T09:29:29.869Z,33.60
2023-05-02T09:30:29.871Z,33.57
2023-05-02T09:31:49.792Z,33.69
2023-05-02T09:32:30.933Z,33.78
2023-05-02T09:33:29.858Z,33.70
2023-05-02T09:34:29.821Z,33.76
2023-05-02T09:35:29.827Z,33.99
2023-05-02T09:36:29.825Z,34.24
2023-05-02T09:37:29.789Z,34.23
2023-05-02T09:38:29.793Z,34.35
2023-05-02T09:39:29.792Z,34.34
2023-05-02T09:40:29.766Z,34.53
2023-05-02T09:41:29.814Z,34.25
2023-05-02T09:42:29.795Z,34.29
2023-05-02T09:43:29.799Z,34.00
2023-05-02T09:44:29.767Z,34.41
2023-05-02T09:45:29.762Z,34.05
2023-05-02T09:46:29.790Z,33.99
2023-05-02T09:47:29.778Z,32.80
2023-05-02T09:48:29.737Z,32.44
2023-05-02T09:49:29.751Z,32.87
2023-05-02T09:50:29.714Z,32.51
2023-05-02T09:51:29.716Z,32.82
2023-05-02T09:52:29.741Z,31.85
2023-05-02T09:53:29.753Z,32.26
2023-05-02T09:54:29.723Z,31.69
2023-05-02T09:55:29.746Z,31.56
2023-05-02T09:56:29.734Z,31.46
2023-05-02T09:57:29.753Z,31.29
2023-05-02T09:58:30.725Z,31.20
2023-05-02T09:59:30.020Z,31.32
2023-05-02T10:00:29.829Z,31.37
2023-05-02T10:01:29.740Z,32.28
2023-05-02T10:02:29.954Z,31.69
2023-05-02T10:03:29.916Z,31.67
2023-05-02T10:04:29.978Z,31.43
2023-05-02T10:05:30.092Z,31.42
2023-05-02T10:06:29.800Z,31.39
2023-05-02T10:07:29.703Z,31.37
2023-05-02T10:08:29.787Z,31.49
2023-05-02T10:09:29.695Z,31.41
2023-05-02T10:10:29.918Z,31.85
2023-05-02T10:11:29.780Z,31.83
2023-05-02T10:12:29.795Z,31.55
2023-05-02T10:13:29.825Z,31.55
2023-05-02T10:14:29.857Z,31.93
2023-05-02T10:15:29.834Z,31.89
2023-05-02T10:16:30.201Z,31.65
2023-05-02T10:17:29.937Z,31.68
2023-05-02T10:18:29.865Z,31.92
2023-05-02T10:19:29.925Z,31.99
2023-05-02T10:20:29.914Z,32.07
2023-05-02T10:21:29.874Z,32.10
2023-05-02T10:22:29.874Z,32.04
2023-05-02T10:23:29.887Z,32.17
2023-05-02T10:24:29.879Z,32.19
2023-05-02T10:25:29.872Z,32.23
2023-05-02T10:26:29.886Z,32.13
2023-05-02T10:27:29.877Z,32.17
2023-05-02T10:28:29.902Z,32.19
2023-05-02T10:29:29.883Z,32.17
2023-05-02T10:30:29.886Z,32.17
2023-05-02T10:31:29.907Z,32.20
2023-05-02T10:32:29.992Z,32.20
2023-05-02T10:33:29.939Z,32.29
2023-05-02T10:34:29.912Z,32.35
2023-05-02T10:35:29.919Z,32.40
2023-05-02T10:36:29.912Z,32.47
2023-05-02T10:37:29.926Z,32.40
2023-05-02T10:38:29.920Z,32.42
2023-05-02T10:39:29.928Z,32.47
2023-05-02T10:40:29.955Z,32.44
2023-05-02T10:41:29.984Z,32.41
2023-05-02T10:42:30.007Z,32.38
2023-05-02T10:43:30.030Z,32.33
2023-05-02T10:44:30.059Z,32.37
2023-05-02T10:45:30.111Z,32.40
2023-05-02T10:46:30.171Z,32.35
2023-05-02T10:47:30.170Z,32.31
2023-05-02T10:48:30.163Z,32.18
2023-05-02T10:49:30.179Z,32.22
2023-05-02T10:50:30.203Z,32.22
2023-05-02T10:51:30.240Z,32.24
2023-05-02T10:52:30.277Z,32.19
2023-05-02T10:53:30.243Z,32.13
2023-05-02T10:54:30.241Z,32.16
2023-05-02T10:55:30.257Z,32.13
2023-05-02T10:56:30.243Z,32.14
2023-05-02T10:57:30.284Z,32.08
2023-05-02T10:58:30.265Z,32.10
2023-05-02T10:59:30.254Z,32.13
2023-05-02T11:00:30.299Z,32.05
2023-05-02T11:01:30.471Z,32.08
2023-05-02T11:02:30.307Z,32.01
2023-05-02T11:03:30.284Z,31.98
2023-05-02T11:04:30.259Z,32.03
2023-05-02T11:05:30.263Z,32.01
2023-05-02T11:06:30.365Z,32.02
2023-05-02T11:07:30.311Z,31.99
2023-05-02T11:08:30.268Z,32.02
2023-05-02T11:09:30.234Z,31.95
2023-05-02T11:10:30.238Z,31.95
2023-05-02T11:11:30.231Z,31.90
2023-05-02T11:12:30.298Z,31.95
2023-05-02T11:13:31.090Z,31.98
2023-05-02T11:14:30.381Z,31.87
2023-05-02T11:15:30.245Z,31.98
2023-05-02T11:16:30.285Z,31.97
2023-05-02T11:17:30.293Z,31.94
2023-05-02T11:18:30.249Z,31.89
2023-05-02T11:19:31.582Z,31.89
2023-05-02T11:20:32.125Z,31.91
2023-05-02T11:21:30.318Z,31.89
2023-05-02T11:22:30.330Z,31.83
2023-05-02T11:23:30.420Z,31.81
2023-05-02T11:24:30.402Z,31.76
2023-05-02T11:25:30.922Z,31.76
2023-05-02T11:26:30.436Z,31.80
2023-05-02T11:27:30.605Z,31.76
2023-05-02T11:28:30.680Z,31.76
2023-05-02T11:29:30.608Z,31.77
2023-05-02T11:30:30.568Z,31.78
2023-05-02T11:31:30.600Z,31.74
2023-05-02T11:32:30.754Z,31.78
2023-05-02T11:33:30.556Z,31.81
2023-05-02T11:34:30.550Z,31.80
2023-05-02T11:35:30.545Z,31.74
2023-05-02T11:36:30.566Z,31.76
2023-05-02T11:37:30.554Z,31.78
2023-05-02T11:38:30.559Z,31.71
2023-05-02T11:39:30.565Z,31.78
2023-05-02T11:40:30.633Z,31.77
2023-05-02T11:41:30.584Z,31.74
2023-05-02T11:42:30.605Z,31.77
2023-05-02T11:43:31.943Z,31.74
2023-05-02T11:44:30.566Z,31.72
2023-05-02T11:45:30.591Z,31.70
2023-05-02T11:46:30.612Z,31.68
2023-05-02T11:47:30.616Z,31.74
2023-05-02T11:48:30.561Z,31.75
2023-05-02T11:49:30.544Z,31.76
2023-05-02T11:50:30.549Z,31.69
2023-05-02T11:51:30.545Z,31.71
2023-05-02T11:52:30.597Z,31.67
2023-05-02T11:53:30.544Z,31.71
2023-05-02T11:54:30.548Z,31.69
2023-05-02T11:55:30.547Z,31.69
2023-05-02T11:56:30.536Z,31.68
2023-05-02T11:57:30.529Z,31.69
2023-05-02T11:58:30.565Z,31.71
2023-05-02T11:59:30.588Z,31.66
2023-05-02T12:00:31.546Z,31.63
2023-05-02T12:01:30.744Z,31.61
2023-05-02T12:02:30.773Z,31.62
2023-05-02T12:03:30.884Z,31.63
2023-05-02T12:04:30.735Z,31.63
2023-05-02T12:05:30.814Z,31.59
2023-05-02T12:06:30.816Z,31.54
2023-05-02T12:07:30.811Z,31.60
2023-05-02T12:08:30.853Z,31.59
2023-05-02T12:09:30.881Z,31.63
2023-05-02T12:10:30.901Z,31.56
2023-05-02T12:11:30.923Z,31.54
2023-05-02T12:12:30.968Z,31.57
2023-05-02T12:13:31.009Z,31.57
2023-05-02T12:14:31.028Z,31.53
2023-05-02T12:15:31.124Z,31.59
2023-05-02T12:16:31.127Z,31.53
2023-05-02T12:17:31.144Z,31.47
2023-05-02T12:18:31.142Z,31.51
2023-05-02T12:19:31.167Z,31.50
2023-05-02T12:20:31.213Z,31.50
2023-05-02T12:21:31.250Z,31.50
2023-05-02T12:22:31.244Z,31.47
2023-05-02T12:23:31.243Z,31.54
2023-05-02T12:24:31.238Z,31.51
2023-05-02T12:25:31.253Z,31.47
2023-05-02T12:26:31.268Z,31.48
2023-05-02T12:27:31.235Z,31.47
2023-05-02T12:28:31.242Z,31.49
2023-05-02T12:29:31.223Z,31.48
2023-05-02T12:30:31.244Z,31.45
2023-05-02T12:31:31.471Z,31.49
2023-05-02T12:32:31.268Z,31.44
2023-05-02T12:33:31.245Z,31.42
2023-05-02T12:34:31.272Z,31.36
2023-05-02T12:35:31.321Z,31.38
2023-05-02T12:36:31.212Z,31.39
2023-05-02T12:37:31.221Z,31.41
2023-05-02T12:38:31.236Z,31.38
2023-05-02T12:39:31.239Z,31.35
2023-05-02T12:40:31.242Z,31.30
2023-05-02T12:41:31.273Z,31.41
2023-05-02T12:42:31.252Z,31.36
2023-05-02T12:43:31.254Z,31.35
2023-05-02T12:44:31.276Z,31.33
2023-05-02T12:45:31.248Z,31.39
2023-05-02T12:46:31.352Z,31.42
2023-05-02T12:47:31.253Z,31.27
2023-05-02T12:48:31.292Z,31.36
2023-05-02T12:49:31.325Z,31.32
2023-05-02T12:50:31.360Z,31.29
2023-05-02T12:51:31.417Z,31.33
2023-05-02T12:52:31.445Z,31.33
2023-05-02T12:53:31.509Z,31.26